Time;durP1;ratioP1;P1;durP2;ratioP2;P2;SDS_P1;SDS_P2;PMS_P1;PMS_P2;Temp;Humidity;BMP_temperature;BMP_pressure;BME280_temperature;BME280_humidity;BME280_pressure;Samples;Min_cycle;Max_cycle;Signal;HPM_P1;HPM_P2
2022/10/19 00:00:10;;;;;;;16.07;14.87;;;;;;;;;;1809625;77;617778;-76
2022/10/19 00:02:39;;;;;;;15.10;14.10;;;;;;;;;;1817102;77;617866;-77
2022/10/19 00:05:09;;;;;;;15.60;14.40;;;;;;;;;;1834192;76;615048;-77
2022/10/19 00:07:37;;;;;;;15.53;14.43;;;;;;;;;;1828193;77;617793;-77
2022/10/19 00:10:09;;;;;;;16.40;15.17;;;;;;;;;;1834776;77;616123;-76
2022/10/19 00:12:39;;;;;;;16.40;15.30;;;;;;;;;;1828445;77;617000;-77
2022/10/19 00:15:09;;;;;;;16.83;15.23;;;;;;;;;;1827358;77;617847;-77
2022/10/19 00:17:39;;;;;;;15.70;14.43;;;;;;;;;;1816378;78;617030;-77
2022/10/19 00:20:09;;;;;;;15.80;14.70;;;;;;;;;;1828262;77;616216;-77
2022/10/19 00:22:37;;;;;;;15.97;14.77;;;;;;;;;;1806325;78;618027;-77
2022/10/19 00:25:07;;;;;;;16.07;14.93;;;;;;;;;;1828377;78;615002;-77
2022/10/19 00:27:37;;;;;;;16.10;14.77;;;;;;;;;;1836627;76;617195;-76
2022/10/19 00:30:08;;;;;;;16.37;14.87;;;;;;;;;;1837455;77;615900;-77
2022/10/19 00:32:37;;;;;;;16.27;14.93;;;;;;;;;;1837824;76;617099;-77
2022/10/19 00:35:07;;;;;;;15.73;14.27;;;;;;;;;;1830286;77;615709;-76
2022/10/19 00:37:36;;;;;;;15.47;14.40;;;;;;;;;;1811104;77;617895;-76
2022/10/19 00:40:06;;;;;;;16.90;15.33;;;;;;;;;;1830104;78;615961;-77
2022/10/19 00:42:35;;;;;;;16.47;15.10;;;;;;;;;;1834531;76;617052;-76
2022/10/19 00:45:07;;;;;;;16.90;15.13;;;;;;;;;;1834550;76;615139;-77
2022/10/19 00:50:38;;;;;;;16.80;15.40;;;;;;;12.32;100.00;100849.50;1861894;75;85900;-75
2022/10/19 00:53:12;;;;;;;16.33;15.03;;;;;;;12.41;100.00;100853.26;1789847;77;936915;-78
2022/10/19 00:55:46;;;;;;;16.37;15.00;;;;;;;12.45;100.00;100854.33;1777600;78;940075;-78
2022/10/19 00:58:17;;;;;;;16.77;15.20;;;;;;;12.47;100.00;100840.94;1741307;78;940980;-77
2022/10/19 01:00:49;;;;;;;16.80;15.50;;;;;;;12.47;100.00;100840.94;1757085;79;939962;-78
2022/10/19 01:06:20;;;;;;;17.57;16.07;;;;;;;12.38;100.00;100885.90;1976233;69;39508;-75
2022/10/19 01:11:48;;;;;;;17.83;16.13;;;;;;;;;;1816655;78;86287;-77
2022/10/19 01:14:27;;;;;;;17.43;15.90;;;;;;;;;;1779008;79;615622;-78
2022/10/19 01:17:00;;;;;;;17.90;16.27;;;;;;;;;;1786397;79;615982;-77
2022/10/19 01:19:53;;;;;;;19.20;17.60;;;;;;;;;;1717125;80;617671;-77
2022/10/19 01:22:26;;;;;;;21.10;18.87;;;;;;;;;;1715379;82;617932;-78
2022/10/19 01:24:59;;;;;;;19.87;18.07;;;;;;;;;;1724080;82;615946;-78
2022/10/19 01:27:41;;;;;;;20.40;18.60;;;;;;;;;;1671324;83;617701;-78
2022/10/19 01:30:14;;;;;;;20.23;18.43;;;;;;;;;;1699537;81;617039;-78
2022/10/19 01:32:48;;;;;;;20.00;18.23;;;;;;;;;;1696445;82;617915;-78
2022/10/19 01:35:21;;;;;;;20.30;18.57;;;;;;;;;;1708684;81;616753;-78
2022/10/19 01:37:51;;;;;;;20.77;18.90;;;;;;;;;;1699935;82;617063;-78
2022/10/19 01:40:24;;;;;;;21.80;19.67;;;;;;;;;;1733690;81;617957;-77
2022/10/19 01:42:55;;;;;;;20.90;19.20;;;;;;;;;;1714573;81;617691;-77
2022/10/19 01:45:28;;;;;;;20.67;19.03;;;;;;;;;;1706382;81;616907;-78
2022/10/19 01:47:59;;;;;;;21.73;19.50;;;;;;;;;;1739279;81;615763;-78
2022/10/19 01:50:29;;;;;;;22.40;20.07;;;;;;;;;;1691075;82;617913;-78
2022/10/19 01:52:59;;;;;;;21.83;19.93;;;;;;;;;;1739720;81;615944;-78
2022/10/19 01:55:29;;;;;;;22.43;20.33;;;;;;;;;;1687870;81;617855;-77
2022/10/19 01:58:00;;;;;;;22.07;19.90;;;;;;;;;;1725218;81;615923;-78
2022/10/19 02:00:32;;;;;;;22.00;20.03;;;;;;;;;;1717765;81;617689;-78
2022/10/19 02:03:02;;;;;;;22.43;20.23;;;;;;;;;;1733588;80;616199;-78
2022/10/19 02:05:31;;;;;;;24.43;20.03;;;;;;;;;;1731371;80;617767;-78
2022/10/19 02:08:01;;;;;;;22.20;19.90;;;;;;;;;;1740142;80;616090;-78
2022/10/19 02:10:31;;;;;;;22.03;19.90;;;;;;;;;;1754950;79;617034;-78
2022/10/19 02:13:00;;;;;;;21.80;19.90;;;;;;;;;;1762943;79;615873;-78
2022/10/19 02:15:32;;;;;;;24.87;20.53;;;;;;;;;;1713767;80;617634;-77
2022/10/19 02:18:01;;;;;;;22.67;20.37;;;;;;;;;;1709948;81;614927;-77
2022/10/19 02:20:31;;;;;;;22.97;20.70;;;;;;;;;;1740909;81;617708;-77
2022/10/19 02:23:03;;;;;;;23.67;20.37;;;;;;;;;;1668697;83;615783;-77
2022/10/19 02:25:33;;;;;;;22.00;19.77;;;;;;;;;;1675563;83;617651;-77
2022/10/19 02:28:03;;;;;;;21.47;19.30;;;;;;;;;;1687352;83;616023;-77
2022/10/19 02:30:32;;;;;;;21.17;19.27;;;;;;;;;;1691764;81;617098;-77
2022/10/19 02:33:02;;;;;;;20.90;19.00;;;;;;;;;;1707778;81;615885;-78
2022/10/19 02:35:31;;;;;;;22.40;19.90;;;;;;;;;;1688214;81;617721;-77
2022/10/19 02:38:02;;;;;;;21.47;19.23;;;;;;;;;;1672134;83;615960;-77
2022/10/19 02:40:32;;;;;;;20.67;18.67;;;;;;;;;;1688233;81;616936;-77
2022/10/19 02:43:03;;;;;;;21.13;19.07;;;;;;;;;;1706532;81;614998;-77
2022/10/19 02:45:33;;;;;;;19.93;18.30;;;;;;;;;;1704156;81;617842;-77
2022/10/19 02:48:04;;;;;;;26.30;18.37;;;;;;;;;;1708523;81;615768;-77
2022/10/19 02:50:33;;;;;;;20.57;18.37;;;;;;;;;;1700242;81;616999;-77
2022/10/19 02:53:02;;;;;;;20.10;17.83;;;;;;;;;;1707767;81;615966;-77
2022/10/19 02:55:31;;;;;;;19.43;17.63;;;;;;;;;;1687710;83;617904;-77
2022/10/19 02:58:00;;;;;;;19.80;17.77;;;;;;;;;;1707787;81;615968;-77
2022/10/19 03:00:29;;;;;;;19.23;17.40;;;;;;;;;;1700123;81;616604;-78
2022/10/19 03:02:57;;;;;;;18.80;17.17;;;;;;;;;;1695410;83;614964;-77
2022/10/19 03:05:26;;;;;;;19.33;17.40;;;;;;;;;;1665424;81;617885;-77
2022/10/19 03:07:54;;;;;;;19.17;17.50;;;;;;;;;;1672250;83;615985;-77
2022/10/19 03:10:25;;;;;;;19.60;18.00;;;;;;;;;;1714686;79;616956;-77
2022/10/19 03:12:56;;;;;;;20.47;18.30;;;;;;;;;;1735056;79;615039;-77
2022/10/19 03:15:27;;;;;;;19.87;18.03;;;;;;;;;;1727555;79;617606;-77
2022/10/19 03:17:56;;;;;;;20.83;18.70;;;;;;;;;;1712953;81;615845;-77
2022/10/19 03:20:26;;;;;;;20.30;18.13;;;;;;;;;;1725009;82;617094;-77
2022/10/19 03:22:55;;;;;;;20.43;18.43;;;;;;;;;;1760910;81;615916;-77
2022/10/19 03:25:23;;;;;;;20.43;18.47;;;;;;;;;;1753204;80;617906;-77
2022/10/19 03:27:52;;;;;;;21.70;19.40;;;;;;;;;;1739259;80;616952;-77
2022/10/19 03:30:21;;;;;;;21.37;19.30;;;;;;;;;;1732524;81;617770;-77
2022/10/19 03:32:49;;;;;;;20.80;18.73;;;;;;;;;;1760687;80;616985;-77
2022/10/19 03:35:18;;;;;;;21.07;18.67;;;;;;;;;;1753271;81;616799;-77
2022/10/19 03:37:48;;;;;;;21.20;18.93;;;;;;;;;;1759273;80;617015;-78
2022/10/19 03:40:17;;;;;;;20.97;18.87;;;;;;;;;;1750994;80;617182;-78
2022/10/19 03:42:47;;;;;;;20.27;18.37;;;;;;;;;;1731156;81;617158;-78
2022/10/19 03:45:17;;;;;;;20.83;18.73;;;;;;;;;;1730314;80;617969;-78
2022/10/19 03:47:49;;;;;;;20.97;18.90;;;;;;;;;;1737605;81;617149;-78
2022/10/19 03:50:19;;;;;;;21.00;19.10;;;;;;;;;;1700420;81;617161;-78
2022/10/19 03:52:51;;;;;;;21.00;18.53;;;;;;;;;;1730673;82;617202;-78
2022/10/19 03:55:22;;;;;;;21.70;19.60;;;;;;;;;;1752438;80;617117;-78
2022/10/19 03:57:50;;;;;;;21.23;19.13;;;;;;;;;;1737589;80;617245;-78
2022/10/19 04:00:19;;;;;;;20.37;18.62;;;;;;;;;;1717480;81;617160;-78
2022/10/19 04:02:49;;;;;;;24.77;19.73;;;;;;;;;;1700573;82;617171;-78
2022/10/19 04:05:18;;;;;;;22.40;20.07;;;;;;;;;;1683512;81;617128;-78
2022/10/19 04:07:47;;;;;;;22.10;19.90;;;;;;;;;;1691560;83;617072;-78
2022/10/19 04:10:17;;;;;;;22.47;19.93;;;;;;;;;;1681843;83;616800;-78
2022/10/19 04:12:45;;;;;;;21.77;19.57;;;;;;;;;;1691706;81;616830;-78
2022/10/19 04:15:14;;;;;;;21.53;19.37;;;;;;;;;;1706098;81;616715;-78
2022/10/19 04:17:43;;;;;;;20.47;18.73;;;;;;;;;;1714047;83;617008;-78
2022/10/19 04:20:13;;;;;;;21.30;19.20;;;;;;;;;;1706709;82;616741;-78
2022/10/19 04:22:41;;;;;;;21.07;19.03;;;;;;;;;;1714084;82;616813;-78
2022/10/19 04:25:11;;;;;;;22.00;19.77;;;;;;;;;;1662021;83;616733;-78
2022/10/19 04:27:40;;;;;;;21.50;19.53;;;;;;;;;;1714078;81;616779;-78
2022/10/19 04:30:09;;;;;;;21.67;19.57;;;;;;;;;;1706676;81;617079;-78
2022/10/19 04:32:39;;;;;;;20.93;18.93;;;;;;;;;;1713884;82;616594;-78
2022/10/19 04:35:09;;;;;;;23.63;19.93;;;;;;;;;;1716077;81;614883;-78
2022/10/19 04:37:37;;;;;;;20.70;18.80;;;;;;;;;;1715981;82;616645;-78
2022/10/19 04:40:10;;;;;;;21.23;19.30;;;;;;;;;;1716150;82;615286;-78
2022/10/19 04:42:40;;;;;;;20.93;18.93;;;;;;;;;;1716079;83;616924;-78
2022/10/19 04:45:09;;;;;;;21.37;19.33;;;;;;;;;;1706032;82;616686;-78
2022/10/19 04:47:39;;;;;;;21.73;19.60;;;;;;;;;;1713572;82;616950;-79
2022/10/19 04:50:08;;;;;;;20.97;18.90;;;;;;;;;;1713483;82;615247;-78
2022/10/19 04:52:38;;;;;;;24.50;18.70;;;;;;;;;;1714253;83;618108;-78
2022/10/19 04:55:08;;;;;;;20.17;18.43;;;;;;;;;;1714021;83;615981;-78
2022/10/19 04:57:36;;;;;;;21.57;18.20;;;;;;;;;;1714199;82;617021;-79
2022/10/19 05:00:09;;;;;;;20.27;18.30;;;;;;;;;;1711627;82;615120;-78
2022/10/19 05:02:39;;;;;;;18.80;17.00;;;;;;;;;;1715912;82;617967;-79
2022/10/19 05:05:10;;;;;;;19.37;17.57;;;;;;;;;;1689168;83;617781;-78
2022/10/19 05:07:41;;;;;;;22.03;17.57;;;;;;;;;;1690819;83;617762;-78
2022/10/19 05:10:10;;;;;;;19.83;17.83;;;;;;;;;;1706189;81;617776;-78
2022/10/19 05:12:39;;;;;;;23.63;17.30;;;;;;;;;;1714132;83;617847;-78
2022/10/19 05:15:11;;;;;;;19.53;17.47;;;;;;;;;;1704343;81;617705;-78
2022/10/19 05:17:40;;;;;;;21.63;17.33;;;;;;;;;;1691394;83;616713;-79
2022/10/19 05:20:10;;;;;;;19.13;17.33;;;;;;;;;;1704918;81;617942;-78
2022/10/19 05:22:41;;;;;;;18.57;16.73;;;;;;;;;;1721475;81;617710;-78
2022/10/19 05:25:10;;;;;;;20.07;17.90;;;;;;;;;;1686095;83;617006;-78
2022/10/19 05:27:39;;;;;;;20.47;18.40;;;;;;;;;;1693328;83;617672;-78
2022/10/19 05:30:10;;;;;;;19.33;17.40;;;;;;;;;;1687503;83;616966;-78
2022/10/19 05:32:40;;;;;;;21.60;18.30;;;;;;;;;;1719212;81;618114;-79
2022/10/19 05:35:09;;;;;;;21.40;18.07;;;;;;;;;;1685948;83;617690;-79
2022/10/19 05:37:38;;;;;;;20.47;18.47;;;;;;;;;;1693327;83;616723;-78
2022/10/19 05:40:09;;;;;;;20.77;18.90;;;;;;;;;;1691200;83;616074;-78
2022/10/19 05:42:39;;;;;;;20.77;18.80;;;;;;;;;;1690865;83;618017;-78
2022/10/19 05:48:08;;;;;;;20.77;18.70;;;;;;;12.08;100.00;100546.57;2051227;69;28309;-78
2022/10/19 05:50:40;;;;;;;20.33;18.33;;;;;;;12.16;100.00;100548.66;1977857;70;26742;-78
2022/10/19 05:53:12;;;;;;;20.33;18.33;;;;;;;12.15;100.00;100554.00;1931355;71;26233;-78
2022/10/19 05:55:45;;;;;;;20.73;18.60;;;;;;;12.15;100.00;100549.23;1944647;71;26328;-78
2022/10/19 05:58:16;;;;;;;20.33;18.37;;;;;;;12.20;100.00;100538.58;1936629;72;26253;-77
2022/10/19 06:00:54;;;;;;;21.93;19.07;;;;;;;12.25;100.00;100527.36;1953336;71;26351;-77
2022/10/19 06:03:25;;;;;;;20.40;18.30;;;;;;;12.20;100.00;100529.66;1934438;73;26302;-77
2022/10/19 06:05:58;;;;;;;18.83;16.87;;;;;;;12.26;100.00;100527.06;1949080;71;27056;-77
2022/10/19 06:08:29;;;;;;;21.97;17.70;;;;;;;12.25;100.00;100525.97;1934536;72;26223;-77
2022/10/19 06:14:15;;;;;;;19.73;17.67;;;;;;;12.36;100.00;100506.58;2024762;69;28574;-78
2022/10/19 06:16:45;;;;;;;22.73;18.20;;;;;;;12.32;100.00;100522.24;1972733;71;26154;-78
2022/10/19 06:19:18;;;;;;;20.97;17.33;;;;;;;12.28;100.00;100527.56;1925683;73;26277;-78
2022/10/19 06:21:50;;;;;;;21.03;18.17;;;;;;;12.33;100.00;100518.30;1953400;71;26880;-78
2022/10/19 06:24:20;;;;;;;20.57;18.50;;;;;;;12.36;100.00;100505.75;1938250;71;26893;-79
2022/10/19 06:26:52;;;;;;;24.30;21.90;;;;;;;12.41;100.00;100508.45;1960943;73;26290;-79
2022/10/19 06:29:22;;;;;;;29.27;20.67;;;;;;;12.41;100.00;100503.67;1965670;73;26647;-79
2022/10/19 06:31:55;;;;;;;22.63;20.30;;;;;;;12.36;100.00;100496.00;1919289;73;26249;-79
2022/10/19 06:34:28;;;;;;;26.23;21.20;;;;;;;12.37;100.00;100497.63;1941259;71;27053;-79
2022/10/19 06:37:00;;;;;;;21.77;19.57;;;;;;;12.37;100.00;100500.41;1962525;71;26276;-79
2022/10/19 06:39:31;;;;;;;23.00;20.73;;;;;;;12.40;100.00;100502.05;1997176;70;26281;-79
2022/10/19 06:42:04;;;;;;;23.00;18.97;;;;;;;12.41;100.00;100505.06;1984523;70;26220;-79
2022/10/19 06:44:35;;;;;;;21.47;19.50;;;;;;;12.53;100.00;100499.03;1929472;74;26651;-79
2022/10/19 06:47:09;;;;;;;24.13;21.00;;;;;;;12.44;100.00;100507.83;1923600;73;26275;-79
2022/10/19 06:49:43;;;;;;;22.33;19.70;;;;;;;12.46;100.00;100509.16;1919569;72;26767;-79
2022/10/19 06:52:13;;;;;;;23.43;20.10;;;;;;;12.46;100.00;100498.58;1932170;72;26261;-79
2022/10/19 06:54:44;;;;;;;24.13;20.57;;;;;;;12.49;100.00;100487.67;1972458;71;26211;-79
2022/10/19 06:57:15;;;;;;;22.93;20.60;;;;;;;12.57;100.00;100474.98;1924246;72;26757;-80
2022/10/19 06:59:46;;;;;;;22.83;20.30;;;;;;;12.63;100.00;100483.49;1914467;72;26533;-79
2022/10/19 07:02:16;;;;;;;21.63;19.33;;;;;;;12.64;100.00;100480.41;1911277;74;26363;-78
2022/10/19 07:04:47;;;;;;;21.77;19.67;;;;;;;12.60;100.00;100479.94;1906587;73;26188;-79
2022/10/19 07:07:19;;;;;;;21.80;19.67;;;;;;;12.69;100.00;100487.28;1868003;74;26313;-79
2022/10/19 07:09:52;;;;;;;22.63;20.07;;;;;;;12.67;100.00;100484.52;1875743;75;26269;-84
2022/10/19 07:12:24;;;;;;;21.93;19.77;;;;;;;12.67;100.00;100476.17;1941570;73;26258;-83
2022/10/19 07:17:55;;;;;;;19.07;17.30;;;;;;;12.70;100.00;100454.67;2057091;69;28202;-79
2022/10/19 07:23:26;;;;;;;20.03;17.83;;;;;;;12.90;100.00;100449.24;2056703;69;27854;-82
2022/10/19 07:26:00;;;;;;;19.27;17.23;;;;;;;12.86;100.00;100460.19;1933536;73;26244;-81
2022/10/19 07:28:33;;;;;;;24.17;17.90;;;;;;;12.92;100.00;100463.71;2013974;71;26674;-81
2022/10/19 07:31:10;;;;;;;22.57;19.03;;;;;;;12.90;100.00;100462.61;1988739;71;26317;-81
2022/10/19 07:33:42;;;;;;;21.87;19.03;;;;;;;12.98;100.00;100452.12;1988364;71;26349;-80
2022/10/19 07:36:14;;;;;;;21.00;18.83;;;;;;;12.93;100.00;100460.59;2014189;71;26319;-80
2022/10/19 07:38:47;;;;;;;20.63;18.70;;;;;;;12.97;100.00;100462.19;1940374;73;26196;-81
2022/10/19 07:44:35;;;;;;;21.17;18.73;;;;;;;13.03;100.00;100445.62;2008786;70;32847;-81
2022/10/19 07:47:10;;;;;;;20.13;18.33;;;;;;;13.02;100.00;100459.30;1893543;75;26765;-80
2022/10/19 07:49:42;;;;;;;20.47;18.37;;;;;;;13.05;100.00;100451.73;1907583;75;26261;-81
2022/10/19 07:55:13;;;;;;;20.10;18.30;;;;;;;13.29;100.00;100432.80;2057030;69;28032;-81
2022/10/19 08:00:47;;;;;;;20.93;17.97;;;;;;;13.37;100.00;100425.65;2057547;69;27648;-78
2022/10/19 08:06:18;;;;;;;20.30;18.60;;;;;;;13.59;100.00;100439.08;2047746;69;28092;-81
2022/10/19 08:08:52;;;;;;;19.60;17.50;;;;;;;13.59;100.00;100446.05;1965676;71;26551;-83
2022/10/19 08:11:25;;;;;;;19.87;17.77;;;;;;;13.64;100.00;100447.33;1922155;72;26278;-82
2022/10/19 08:14:01;;;;;;;19.73;17.40;;;;;;;13.67;100.00;100443.90;1952113;71;27050;-82
2022/10/19 08:16:36;;;;;;;18.60;17.03;;;;;;;13.78;100.00;100446.45;1951761;71;26285;-78
2022/10/19 08:19:09;;;;;;;19.07;17.07;;;;;;;13.73;100.00;100432.63;1950624;71;26246;-78
2022/10/19 08:21:42;;;;;;;18.70;16.93;;;;;;;13.85;100.00;100420.31;1965390;73;26240;-78
2022/10/19 08:24:23;;;;;;;18.60;17.00;;;;;;;13.79;100.00;100410.40;1935368;72;26830;-79
2022/10/19 08:26:54;;;;;;;17.97;16.50;;;;;;;13.89;100.00;100412.38;1960910;71;26792;-78
2022/10/19 08:29:28;;;;;;;20.77;17.60;;;;;;;13.97;100.00;100416.36;1959054;71;26238;-78
2022/10/19 08:32:00;;;;;;;18.50;16.70;;;;;;;13.91;100.00;100416.23;1964420;72;26322;-79
2022/10/19 08:34:32;;;;;;;18.33;16.47;;;;;;;13.98;100.00;100407.68;1940711;72;26277;-79
2022/10/19 08:37:04;;;;;;;19.07;17.10;;;;;;;13.95;100.00;100406.07;2005808;69;26240;-79
2022/10/19 08:39:36;;;;;;;18.67;16.87;;;;;;;14.05;100.00;100400.23;1976264;71;26293;-79
2022/10/19 08:42:11;;;;;;;17.90;16.40;;;;;;;14.07;100.00;100395.17;1977179;71;26297;-78
2022/10/19 08:45:17;;;;;;;17.93;16.47;;;;;;;14.09;100.00;100389.50;2009216;71;26257;-84
2022/10/19 08:47:57;;;;;;;19.87;17.17;;;;;;;14.24;100.00;100395.27;1938245;70;26342;-83
2022/10/19 08:50:31;;;;;;;19.30;17.50;;;;;;;14.24;100.00;100398.06;2002041;70;26232;-83
2022/10/19 08:53:05;;;;;;;18.57;16.87;;;;;;;14.34;100.00;100410.33;2007107;69;26292;-82
2022/10/19 08:55:42;;;;;;;18.73;16.97;;;;;;;14.47;100.00;100406.65;1974812;70;26308;-83
2022/10/19 08:58:28;;;;;;;18.20;16.90;;;;;;;14.51;100.00;100402.63;1933245;72;26215;-83
2022/10/19 09:01:02;;;;;;;19.77;17.43;;;;;;;14.49;100.00;100409.97;1943055;71;26842;-82
2022/10/19 09:03:38;;;;;;;18.10;16.60;;;;;;;14.48;100.00;100392.94;1974597;70;26730;-83
2022/10/19 09:09:15;;;;;;;19.37;17.53;;;;;;;14.67;100.00;100369.50;2074591;68;28137;-84
2022/10/19 09:11:49;;;;;;;19.70;18.00;;;;;;;14.59;100.00;100376.11;1983844;71;24166;-83
2022/10/19 09:14:23;;;;;;;19.50;18.00;;;;;;;14.76;100.00;100364.16;1996114;71;27062;-83
2022/10/19 09:16:56;;;;;;;20.07;18.30;;;;;;;14.71;100.00;100351.75;1941015;73;26218;-81
2022/10/19 09:19:30;;;;;;;20.87;18.73;;;;;;;14.80;100.00;100357.37;1942787;71;26775;-85
2022/10/19 09:22:04;;;;;;;18.37;16.83;;;;;;;14.96;100.00;100348.76;1960216;71;26285;-84
2022/10/19 09:24:41;;;;;;;18.53;17.20;;;;;;;15.00;100.00;100349.17;1957283;71;26339;-84
2022/10/19 09:27:16;;;;;;;18.27;16.97;;;;;;;15.21;100.00;100341.54;1958261;71;26816;-84
2022/10/19 09:32:52;;;;;;;18.43;16.93;;;;;;;15.37;100.00;100325.89;2055047;69;27516;-85
2022/10/19 09:35:38;;;;;;;18.40;16.57;;;;;;;15.45;100.00;100322.27;2020449;71;26222;-84
2022/10/19 09:41:16;;;;;;;17.93;16.40;;;;;;;15.57;100.00;100316.05;2056849;69;25934;-83
2022/10/19 09:43:53;;;;;;;18.13;16.63;;;;;;;15.47;100.00;100321.37;1936735;73;26218;-78
2022/10/19 09:46:33;;;;;;;18.63;17.00;;;;;;;15.38;100.00;100317.75;2013693;71;26220;-78
2022/10/19 09:49:06;;;;;;;19.73;17.83;;;;;;;15.54;100.00;100311.09;1934125;74;26294;-78
2022/10/19 09:51:53;;;;;;;18.17;16.73;;;;;;;15.54;100.00;100311.09;1987197;71;26306;-78
2022/10/19 09:54:33;;;;;;;18.60;17.00;;;;;;;15.32;100.00;100311.48;2012511;71;26223;-79
2022/10/19 10:00:03;;;;;;;18.97;17.33;;;;;;;15.59;100.00;100313.72;1981703;71;27276;-78
2022/10/19 10:05:35;;;;;;;19.47;17.60;;;;;;;15.76;100.00;100293.52;2055437;69;25849;-78
2022/10/19 10:08:14;;;;;;;19.50;17.67;;;;;;;15.83;100.00;100305.63;1977417;72;26220;-78
2022/10/19 10:13:53;;;;;;;17.97;16.67;;;;;;;15.73;100.00;100294.77;2055652;69;27404;-78
2022/10/19 10:16:28;;;;;;;17.07;15.97;;;;;;;15.73;100.00;100294.77;2021395;71;26458;-79
2022/10/19 10:19:02;;;;;;;18.80;17.30;;;;;;;15.80;100.00;100299.27;2021656;70;26225;-80
2022/10/19 10:21:35;;;;;;;18.80;17.10;;;;;;;15.90;100.00;100289.94;2021719;70;24235;-79
2022/10/19 10:24:08;;;;;;;16.90;15.80;;;;;;;15.96;100.00;100271.55;1940896;73;26508;-78
2022/10/19 10:28:26;;;;;;;13.87;11.23;;;;;;;;;;1947112;73;25799;-76
2022/10/19 10:30:57;;;;;;;12.80;10.83;;;;;;;;;;1910897;74;24345;-76
2022/10/19 10:33:27;;;;;;;10.40;9.00;;;;;;;;;;1910589;75;26372;-76
2022/10/19 10:35:57;;;;;;;15.27;9.90;;;;;;;;;;1910808;75;26256;-76
2022/10/19 10:38:27;;;;;;;11.60;10.50;;;;;;;;;;1910524;75;24270;-76
2022/10/19 10:40:57;;;;;;;14.53;13.17;;;;;;;;;;1884568;75;24375;-75
2022/10/19 10:43:27;;;;;;;12.80;11.47;;;;;;;;;;1883332;75;26342;-76
2022/10/19 10:45:57;;;;;;;11.90;10.90;;;;;;;;;;1883429;75;26260;-75
2022/10/19 10:48:28;;;;;;;12.77;11.63;;;;;;;;;;1910907;73;24275;-76
2022/10/19 10:51:00;;;;;;;12.03;10.97;;;;;;;;;;1884131;75;26295;-76
2022/10/19 10:53:36;;;;;;;12.53;11.33;;;;;;;;;;1910658;75;24193;-76
2022/10/19 10:56:05;;;;;;;11.07;10.17;;;;;;;;;;1883431;75;26326;-76
2022/10/19 10:58:39;;;;;;;12.47;11.33;;;;;;;;;;1883363;75;24205;-76
2022/10/19 11:01:09;;;;;;;12.20;11.10;;;;;;;;;;1883364;75;24197;-76
2022/10/19 11:03:40;;;;;;;13.97;12.23;;;;;;;;;;1883645;75;24229;-76
2022/10/19 11:06:08;;;;;;;13.17;11.97;;;;;;;;;;1912284;74;26385;-76
2022/10/19 11:08:38;;;;;;;14.13;12.83;;;;;;;;;;1911221;75;24199;-77
2022/10/19 11:11:09;;;;;;;10.97;9.87;;;;;;;;;;1885008;75;24187;-78
2022/10/19 11:13:39;;;;;;;13.20;12.27;;;;;;;;;;1910907;73;24167;-77
2022/10/19 11:16:12;;;;;;;12.20;10.93;;;;;;;;;;1817455;78;26290;-77
2022/10/19 11:18:42;;;;;;;11.50;10.47;;;;;;;;;;1841808;78;24744;-77
2022/10/19 11:21:12;;;;;;;13.80;12.50;;;;;;;;;;1842453;78;24131;-78
2022/10/19 11:23:56;;;;;;;13.83;12.43;;;;;;;;;;1869398;76;24188;-77
2022/10/19 11:26:33;;;;;;;12.30;11.30;;;;;;;;;;1868297;76;26419;-77
2022/10/19 11:29:05;;;;;;;12.37;11.17;;;;;;;;;;1841751;78;24282;-77
2022/10/19 11:31:37;;;;;;;14.07;12.70;;;;;;;;;;1868581;76;25260;-77
2022/10/19 11:34:07;;;;;;;12.87;11.70;;;;;;;;;;1843349;78;24293;-76
2022/10/19 11:36:40;;;;;;;13.17;12.03;;;;;;;;;;1857556;77;24291;-76
2022/10/19 11:39:24;;;;;;;11.70;10.63;;;;;;;;;;1887542;75;24260;-77
2022/10/19 11:41:55;;;;;;;13.47;10.07;;;;;;;;;;1886953;74;26825;-77
2022/10/19 11:44:30;;;;;;;13.03;11.80;;;;;;;;;;1882206;75;24226;-77
2022/10/19 11:47:02;;;;;;;14.30;13.10;;;;;;;;;;1887172;75;24206;-76
2022/10/19 11:49:34;;;;;;;12.43;11.57;;;;;;;;;;1887166;74;24222;-77
2022/10/19 11:52:05;;;;;;;14.37;13.13;;;;;;;;;;1856934;77;24785;-77
2022/10/19 11:54:37;;;;;;;13.63;12.37;;;;;;;;;;1856664;77;24206;-76
2022/10/19 11:57:07;;;;;;;13.13;12.33;;;;;;;;;;1856576;77;24368;-76
2022/10/19 11:59:39;;;;;;;13.10;12.13;;;;;;;;;;1857321;77;24268;-77
2022/10/19 12:02:12;;;;;;;22.10;20.60;;;;;;;;;;1886485;75;24276;-78
2022/10/19 12:04:44;;;;;;;27.37;25.73;;;;;;;;;;1856645;77;24214;-77
2022/10/19 12:07:20;;;;;;;28.43;26.63;;;;;;;;;;1887442;75;24222;-77
2022/10/19 12:09:50;;;;;;;13.00;11.83;;;;;;;;;;1856660;76;24753;-77
2022/10/19 12:12:29;;;;;;;14.50;13.30;;;;;;;;;;1886742;75;24241;-77
2022/10/19 12:14:59;;;;;;;12.87;11.67;;;;;;;;;;1858835;77;24162;-77
2022/10/19 12:17:29;;;;;;;12.63;11.57;;;;;;;;;;1858691;77;24169;-76
2022/10/19 12:20:00;;;;;;;14.90;13.63;;;;;;;;;;1858760;77;24172;-76
2022/10/19 12:22:30;;;;;;;13.00;11.97;;;;;;;;;;1885027;76;27028;-76
2022/10/19 12:25:00;;;;;;;13.83;12.47;;;;;;;;;;1858766;77;24166;-76
2022/10/19 12:27:32;;;;;;;13.37;12.37;;;;;;;;;;1888709;75;24277;-76
2022/10/19 12:30:05;;;;;;;14.77;13.47;;;;;;;;;;1858794;77;24162;-76
2022/10/19 12:32:36;;;;;;;15.33;14.27;;;;;;;;;;1858621;77;24161;-76
2022/10/19 12:35:06;;;;;;;15.47;13.90;;;;;;;;;;1836779;77;24649;-76
2022/10/19 12:37:36;;;;;;;16.17;15.10;;;;;;;;;;1858807;77;24219;-76
2022/10/19 12:40:06;;;;;;;13.00;11.80;;;;;;;;;;1869837;76;26711;-76
2022/10/19 12:42:37;;;;;;;16.23;15.03;;;;;;;;;;1818115;77;24506;-76
2022/10/19 12:45:19;;;;;;;13.03;11.83;;;;;;;;;;1869798;76;24817;-76
2022/10/19 12:48:06;;;;;;;13.37;12.40;;;;;;;;;;1814727;78;26796;-76
2022/10/19 12:50:52;;;;;;;15.07;13.67;;;;;;;;;;1891274;76;24183;-75
2022/10/19 12:53:23;;;;;;;14.53;13.13;;;;;;;;;;1891446;76;24282;-76
2022/10/19 12:55:59;;;;;;;17.47;15.20;;;;;;;;;;1891826;76;24192;-76
2022/10/19 12:58:29;;;;;;;14.23;13.00;;;;;;;;;;1867653;76;26410;-76
2022/10/19 13:01:00;;;;;;;12.80;11.80;;;;;;;;;;1891398;76;24196;-75
2022/10/19 13:03:31;;;;;;;13.37;12.33;;;;;;;;;;1859690;77;24246;-75
2022/10/19 13:06:01;;;;;;;15.23;13.93;;;;;;;;;;1869717;76;24302;-75
2022/10/19 13:08:31;;;;;;;12.80;11.60;;;;;;;;;;1842141;78;24235;-75
2022/10/19 13:11:08;;;;;;;11.37;10.40;;;;;;;;;;1841861;78;24205;-75
2022/10/19 13:13:58;;;;;;;13.87;12.73;;;;;;;;;;1842359;78;24208;-75
2022/10/19 13:16:43;;;;;;;14.63;13.07;;;;;;;;;;1843958;78;24160;-75
2022/10/19 13:19:18;;;;;;;9.93;8.80;;;;;;;;;;1843955;78;24149;-75
2022/10/19 13:21:54;;;;;;;12.13;11.03;;;;;;;;;;1903867;75;24246;-75
2022/10/19 13:24:31;;;;;;;13.27;12.07;;;;;;;;;;1875538;76;24825;-75
2022/10/19 13:27:22;;;;;;;14.10;12.77;;;;;;;;;;1875578;76;24276;-76
2022/10/19 13:29:51;;;;;;;13.30;11.90;;;;;;;;;;1877215;76;24690;-75
2022/10/19 13:32:36;;;;;;;12.63;11.33;;;;;;;;;;1904132;75;24646;-78
2022/10/19 13:35:22;;;;;;;11.47;10.27;;;;;;;;;;1875757;76;24210;-75
2022/10/19 13:38:09;;;;;;;13.90;12.70;;;;;;;;;;1875674;76;24164;-76
2022/10/19 13:40:38;;;;;;;14.60;13.40;;;;;;;;;;1875663;76;24703;-75
2022/10/19 13:43:13;;;;;;;14.70;13.40;;;;;;;;;;1875751;76;24201;-76
2022/10/19 13:45:42;;;;;;;14.60;13.37;;;;;;;;;;1904053;75;26370;-75
2022/10/19 13:48:12;;;;;;;15.00;13.80;;;;;;;;;;1877256;76;24175;-75
2022/10/19 13:50:42;;;;;;;14.60;13.10;;;;;;;;;;1903456;73;24209;-78
2022/10/19 13:53:28;;;;;;;12.60;11.13;;;;;;;;;;1875629;76;24163;-77
2022/10/19 13:56:06;;;;;;;11.87;10.97;;;;;;;;;;1904037;75;24151;-77
2022/10/19 13:58:49;;;;;;;14.67;13.27;;;;;;;;;;1869083;76;24294;-78
2022/10/19 14:01:21;;;;;;;15.83;14.23;;;;;;;;;;1842696;77;24502;-79
2022/10/19 14:04:07;;;;;;;14.67;13.30;;;;;;;;;;1820210;77;24695;-79
2022/10/19 14:06:38;;;;;;;14.07;13.07;;;;;;;;;;1875528;76;24159;-78
2022/10/19 14:09:15;;;;;;;14.10;12.63;;;;;;;;;;1871402;76;24173;-76
2022/10/19 14:11:45;;;;;;;13.23;12.03;;;;;;;;;;1816164;78;24742;-77
2022/10/19 14:14:16;;;;;;;14.27;12.87;;;;;;;;;;1893476;76;24211;-78
2022/10/19 14:16:50;;;;;;;14.77;11.63;;;;;;;;;;1870617;76;24210;-78
2022/10/19 14:19:25;;;;;;;10.57;9.60;;;;;;;;;;1861620;77;24702;-77